Shingleton, Michigan
Current Conditions -  °F | °C
As of 6:14 AM on Thursday 23 Oct 2014 (Local Time) from KISQ Reporting Station
Broken Clouds Broken Clouds  
Wind Chill: 39°   Ceiling: 1600
Heat Index: 45°   Visibility: 10mi
Dew Point: 40°   Wind: 12mph
Humidity: 85%   Direction: 200°SSW
Pressure: 30.19"   Gusts: 16mph
Location:  46.35°N, 86.47°W
Report Text: KISQ 231014Z AUTO 20010G14KT 10SM BKN016 07/05 A3019 RMK AO2 T00700047
Loading
Personal Weather Stations






























Interactive Weather Map
Tropical Storm Tracking
New forecast layout! Learn more

10-Day Weather Forecast

Advertisements
Track Severe Weather on mobile